In Rescue
 
Open Full Screen Window  High Contrast Mode
Wind Gusting 00 knots
07
May 27, 2024 2:14 PM CDT
Present Weather: Light Rain
Weather Information
Wind Direction
  360 °
Wind Speed
  07 kt (8 mph)
Wind Gust
  00 kt (0 mph)
Altimeter
29.86 in
Visibility
10 SM
Temperature
12° C
54° F
Dewpoint
11° C
52° F
Humidity
94%
1hr Rain Fall
00.01 in.
24hr Rain Fall
00.12 in.
Sky Condition
Overcast @ 6,500 ft
VFR

METAR KBJI 271914Z AUTO 36007KT 10SM -RA OVC065 12/11 A2986 RMK AO2 P0001 T01180108

FAA Disclaimer: The data displayed is for advisory purposes only and is not to be used for flight planning or operations.